Data for 05/09/2017

Time Sea-Level Adjusted Pressure Absolute Pressure Temperature Relative Humidity Dew Point   
(mb) (inHg) (mb) (inHg) (C) (F) (%) (C) (F)
00:05 1019 30.09 848 25.04 8.9 47.9 57 0.9 33.5
00:10 1019 30.09 848 25.04 8.8 47.8 58 0.9 33.6
00:15 1018 30.06 848 25.04 8.7 47.6 58 0.9 33.6
00:20 1018 30.06 848 25.04 8.6 47.4 58 0.8 33.5
00:25 1018 30.06 848 25.04 8.5 47.2 58 0.8 33.5
00:30 1018 30.06 848 25.04 8.4 47.1 58 0.7 33.3
00:35 1018 30.06 848 25.04 8.3 47 58 0.7 33.3
00:40 1018 30.06 848 25.04 8.3 47 58 0.6 33.1
00:45 1018 30.06 848 25.04 8.3 47 58 0.7 33.2
00:50 1018 30.06 847 25.01 8.2 46.8 59 0.6 33.1
00:55 1018 30.06 847 25.01 8.2 46.7 59 0.6 33
01:00 1018 30.06 847 25.01 8.1 46.7 58 0.4 32.7
01:05 1018 30.06 847 25.01 8.2 46.8 57 0.3 32.6
01:10 1018 30.06 847 25.01 8.2 46.8 58 0.4 32.8
01:15 1018 30.06 847 25.01 8.1 46.6 58 0.4 32.7
01:20 1018 30.06 847 25.01 8 46.5 58 0.2 32.4
01:25 1018 30.06 847 25.01 8 46.5 58 0.3 32.5
01:30 1018 30.06 847 25.01 7.9 46.3 59 0.3 32.6
01:35 1018 30.06 847 25.01 7.8 46 59 0.2 32.4
01:40 1018 30.06 847 25.01 7.8 46 59 0.3 32.5
01:45 1018 30.06 847 25.01 7.7 45.8 59 0.3 32.5
01:50 1018 30.06 847 25.01 7.5 45.6 60 0.3 32.6
01:55 1018 30.06 847 25.01 7.4 45.3 60 0.3 32.5
02:00 1018 30.06 847 25.01 7.3 45.1 61 0.2 32.3
02:05 1018 30.06 847 25.01 7.2 45 61 0.2 32.4
02:10 1018 30.06 847 25.01 7.1 44.8 61 0.1 32.2
02:15 1018 30.06 847 25.01 7 44.6 62 0.2 32.4
02:20 1018 30.06 847 25.01 6.8 44.2 63 0.2 32.4
02:25 1018 30.06 847 25.01 6.6 43.9 64 0.2 32.4
02:30 1018 30.06 847 25.01 6.5 43.8 63 0 32.1
02:35 1018 30.06 847 25.01 6.5 43.8 63 0.1 32.1
02:40 1018 30.06 847 25.01 6.4 43.5 64 0.2 32.3
02:45 1018 30.06 847 25.01 6.2 43.2 66 0.3 32.5
02:50 1018 30.06 847 25.01 5.9 42.7 68 0.5 32.8
02:55 1018 30.06 847 25.01 5.5 41.9 70 0.4 32.7
03:00 1018 30.06 847 25.01 5.4 41.8 70 0.3 32.6
03:05 1018 30.06 847 25.01 5.3 41.6 70 0.4 32.7
03:10 1018 30.06 847 25.01 5.4 41.7 70 0.3 32.5
03:15 1018 30.06 847 25.01 5.5 41.9 69 0.4 32.6
03:20 1018 30.06 847 25.01 5.4 41.8 70 0.4 32.8
03:25 1018 30.06 847 25.01 5.3 41.6 70 0.3 32.5
03:30 1018 30.06 847 25.01 5.3 41.6 70 0.3 32.5
03:35 1018 30.06 847 25.01 5.3 41.6 70 0.2 32.4
03:40 1018 30.06 847 25.01 5.2 41.4 70 0.3 32.5
03:45 1018 30.06 847 25.01 5.1 41.1 71 0.2 32.4
03:50 1018 30.06 847 25.01 4.9 40.8 71 0.1 32.2
03:55 1018 30.06 847 25.01 4.9 40.8 72 0.2 32.3
04:00 1018 30.06 847 25.01 4.9 40.8 71 -0 32
04:05 1018 30.06 847 25.01 5.1 41.2 70 0 32.1
04:10 1018 30.06 847 25.01 5.2 41.4 69 0 32.1
04:15 1018 30.06 847 25.01 5.2 41.4 70 0.2 32.3
04:20 1018 30.06 847 25.01 5.1 41.2 70 0 32.1
04:25 1018 30.06 847 25.01 5.1 41.2 70 0.1 32.1
04:30 1018 30.06 847 25.01 5.1 41.1 71 0.2 32.4
04:35 1018 30.06 847 25.01 5 41 71 0.1 32.3
04:40 1018 30.06 847 25.01 5 41 71 0.1 32.2
04:45 1018 30.06 847 25.01 5.1 41.1 71 0.2 32.3
04:50 1018 30.06 847 25.01 5.1 41.2 70 0.1 32.3
04:55 1018 30.06 847 25.01 5 41.1 71 0.2 32.4
05:00 1018 30.06 847 25.01 4.9 40.9 71 0.2 32.4
05:05 1018 30.06 847 25.01 4.8 40.7 72 0.2 32.4
05:10 1018 30.06 847 25.01 4.7 40.4 73 0.2 32.3
05:15 1018 30.06 847 25.01 4.6 40.3 73 0.2 32.3
05:20 1018 30.06 847 25.01 4.6 40.3 72 0.1 32.2
05:25 1018 30.06 847 25.01 4.8 40.7 72 0.2 32.4
05:30 1018 30.06 847 25.01 4.9 40.8 72 0.2 32.4
05:35 1018 30.06 847 25.01 5 40.9 71 0.2 32.4
05:40 1018 30.06 847 25.01 5 41 71 0.2 32.3
05:45 1018 30.06 847 25.01 5 41 71 0.2 32.4
05:50 1018 30.06 847 25.01 4.9 40.9 71 0.2 32.4
05:55 1018 30.06 847 25.01 4.7 40.5 73 0.3 32.5
06:00 1018 30.06 847 25.01 4.5 40.2 74 0.2 32.4
06:05 1018 30.06 847 25.01 4.4 39.9 74 0.2 32.3
06:10 1018 30.06 847 25.01 4.2 39.6 75 0.1 32.2
06:15 1018 30.06 847 25.01 4.3 39.7 74 0 32
06:20 1018 30.06 847 25.01 4.5 40.1 73 -0 32
06:25 1018 30.06 847 25.01 4.7 40.4 72 0.1 32.2
06:30 1018 30.06 847 25.01 4.7 40.4 72 0.1 32.2
06:35 1018 30.06 847 25.01 4.7 40.4 72 0.1 32.3
06:40 1018 30.06 847 25.01 4.6 40.2 73 0.2 32.3
06:45 1018 30.06 847 25.01 4.7 40.4 72 0.1 32.2
06:50 1018 30.06 847 25.01 4.9 40.8 71 0.1 32.2
06:55 1018 30.06 847 25.01 5.1 41.1 71 0.2 32.4
07:00 1018 30.06 847 25.01 5.2 41.4 70 0.2 32.4
07:05 1018 30.06 847 25.01 5.3 41.5 70 0.4 32.6
07:10 1018 30.06 847 25.01 5.4 41.8 70 0.4 32.6
07:15 1018 30.06 847 25.01 5.6 42 69 0.4 32.7
07:20 1018 30.06 847 25.01 6 42.9 67 0.4 32.7
07:25 1018 30.06 847 25.01 6.7 44.1 64 0.5 33
07:30 1018 30.06 847 25.01 7.2 45 63 0.8 33.4
07:35 1018 30.06 847 25.01 7.8 46.1 61 0.7 33.3
07:40 1018 30.06 847 25.01 7.9 46.2 63 1.3 34.4
07:45 1018 30.06 847 25.01 7.8 46 62 1 33.7
07:50 1018 30.06 847 25.01 8.4 47 60 1 33.8
07:55 1018 30.06 847 25.01 8.5 47.2 60 1.3 34.3
08:00 1018 30.06 847 25.01 8.2 46.8 59 0.8 33.5
08:05 1018 30.06 847 25.01 8.8 47.8 57 0.8 33.4
08:10 1018 30.06 847 25.01 8.9 48.1 59 1.4 34.5
08:15 1018 30.06 847 25.01 9.2 48.5 56 1 33.7
08:20 1018 30.06 847 25.01 9.4 49 57 1.4 34.5
08:25 1018 30.06 847 25.01 9.9 49.9 54 1.1 33.9
08:30 1018 30.06 848 25.04 10.6 51.2 53 1.4 34.5
08:35 1018 30.06 848 25.04 10.7 51.2 53 1.5 34.7
08:40 1018 30.06 848 25.04 11.2 52.1 50 1.1 34.1
08:45 1018 30.06 848 25.04 11.5 52.7 48 0.9 33.7
08:50 1018 30.06 848 25.04 11.9 53.3 49 1.6 34.8
08:55 1019 30.09 848 25.04 11.2 52.1 50 1.3 34.3
09:00 1018 30.06 848 25.04 11.4 52.4 52 1.8 35.2
09:05 1018 30.06 848 25.04 10.6 51 52 1.1 34
09:10 1018 30.06 848 25.04 10.6 51.1 53 1.4 34.5
09:15 1019 30.09 848 25.04 10.8 51.5 50 0.9 33.7
09:20 1019 30.09 848 25.04 10.8 51.4 54 1.8 35.2
09:25 1019 30.09 848 25.04 10.5 50.9 55 1.8 35.2
09:30 1019 30.09 848 25.04 10.8 51.5 54 1.8 35.3
09:35 1019 30.09 848 25.04 11.1 51.9 52 1.7 35.1
09:40 1018 30.06 848 25.04 10.9 51.5 53 1.8 35.2
09:45 1018 30.06 848 25.04 10.9 51.6 53 1.9 35.3
09:50 1018 30.06 848 25.04 10.7 51.3 54 1.9 35.4
09:55 1018 30.06 848 25.04 11.1 51.9 52 1.7 35.1
10:00 1018 30.06 848 25.04 11.5 52.6 50 1.4 34.5
10:05 1018 30.06 847 25.01 12.6 54.7 48 1.8 35.2
10:10 1018 30.06 847 25.01 12.7 54.9 48 2.1 35.7
10:15 1018 30.06 847 25.01 12.5 54.4 49 2 35.7
10:20 1018 30.06 847 25.01 12.4 54.2 50 2.3 36.2
10:25 1018 30.06 847 25.01 12.3 54.1 51 2.4 36.3
10:30 1018 30.06 847 25.01 11.8 53.3 51 2 35.7
10:35 1018 30.06 847 25.01 12.7 54.8 47 1.8 35.2
10:40 1018 30.06 847 25.01 13.3 55.9 47 2.3 36.1
10:45 1018 30.06 847 25.01 13.7 56.6 46 2.2 36
10:50 1018 30.06 847 25.01 14.5 58.1 42 2 35.5
10:55 1018 30.06 847 25.01 14 57.2 46 2.5 36.5
11:00 1018 30.06 848 25.04 13.7 56.7 44 1.8 35.2
11:05 1018 30.06 847 25.01 14 57.3 44 1.9 35.5
11:10 1018 30.06 847 25.01 14.4 57.8 44 2.2 36
11:15 1018 30.06 847 25.01 14.4 58 44 2.6 36.6
11:20 1018 30.06 847 25.01 15.3 59.6 39 1.5 34.7
11:25 1018 30.06 847 25.01 15.1 59.1 40 1.8 35.2
11:30 1018 30.06 847 25.01 15.1 59.2 39 1.5 34.7
11:35 1018 30.06 847 25.01 15.4 59.6 41 2.4 36.3
11:40 1018 30.06 847 25.01 15.3 59.6 39 1.6 34.8
11:45 1018 30.06 847 25.01 15.2 59.4 38 1.3 34.3
11:50 1018 30.06 847 25.01 15.4 59.7 42 2.7 36.8
11:55 1018 30.06 847 25.01 15 59 41 1.9 35.4
12:00 1018 30.06 847 25.01 15.2 59.4 42 2.6 36.8
12:05 1018 30.06 847 25.01 15.6 60.1 40 2.1 35.8
12:10 1018 30.06 847 25.01 15.8 60.5 38 1.7 35
12:15 1018 30.06 847 25.01 16.2 61.2 36 1.1 34
12:20 1018 30.06 847 25.01 16.2 61.2 37 1.6 34.8
12:25 1018 30.06 847 25.01 16.5 61.8 37 1.9 35.4
12:30 1018 30.06 847 25.01 15.6 60.1 39 1.7 35.1
12:35 1018 30.06 847 25.01 15.4 59.7 36 0.6 33.1
12:40 1018 30.06 847 25.01 15.9 60.5 35 0.7 33.2
12:45 1018 30.06 847 25.01 16.6 61.8 34 0.6 33.2
12:50 1018 30.06 847 25.01 17.5 63.6 33 1.1 34
12:55 1018 30.06 847 25.01 16.9 62.4 33 0.7 33.2
13:00 1018 30.06 847 25.01 17 62.5 32 0.1 32.2
13:05 1018 30.06 847 25.01 16.6 61.9 32 -0.1 31.8
13:10 1018 30.06 847 25.01 16.8 62.2 31 -0.3 31.5
13:15 1017 30.03 847 25.01 17.2 63 31 -0 32
13:20 1017 30.03 847 25.01 17.3 63.1 32 0.4 32.6
13:25 1017 30.03 847 25.01 18.2 64.8 27 -0.8 30.5
13:30 1017 30.03 846 24.98 17.2 63 31 -0.1 31.9
13:35 1017 30.03 846 24.98 17 62.7 29 -0.9 30.4
13:40 1017 30.03 846 24.98 17.8 64 26 -1.6 29.1
13:45 1017 30.03 846 24.98 18.1 64.6 23 -3.2 26.3
13:50 1017 30.03 846 24.98 17.1 62.9 27 -1.6 29
13:55 1017 30.03 846 24.98 16.8 62.2 29 -1.3 29.7
14:00 1017 30.03 846 24.98 17.2 63 28 -1.5 29.4
14:05 1017 30.03 846 24.98 18.2 64.7 27 -1.2 29.8
14:10 1017 30.03 846 24.98 18.2 64.8 27 -0.8 30.5
14:15 1017 30.03 846 24.98 18.1 64.5 26 -1.6 29.2
14:20 1017 30.03 846 24.98 18.7 65.6 27 -0.8 30.6
14:25 1017 30.03 846 24.98 18.9 66 21 -3.8 25.2
14:30 1017 30.03 846 24.98 18.7 65.6 25 -1.9 28.6
14:35 1017 30.03 846 24.98 19.2 66.6 24 -1.5 29.3
14:40 1017 30.03 846 24.98 19.2 66.5 24 -1.5 29.4
14:45 1017 30.03 846 24.98 19.8 67.7 23 -1.5 29.3
14:50 1017 30.03 846 24.98 19.3 66.7 23 -2.2 28.1
14:55 1017 30.03 846 24.98 19.2 66.6 23 -2.5 27.6
15:00 1017 30.03 846 24.98 18.9 66 22 -3.2 26.2
15:05 1017 30.03 846 24.98 17.8 64.1 24 -3.1 26.3
15:10 1017 30.03 846 24.98 18.1 64.7 24 -2.6 27.3
15:15 1017 30.03 846 24.98 18.6 65.5 23 -2.9 26.7
15:20 1017 30.03 846 24.98 19.4 67 21 -3.4 25.8
15:25 1017 30.03 846 24.98 20 68.1 21 -2.5 27.5
15:30 1017 30.03 846 24.98 20 67.9 21 -3 26.5
15:35 1017 30.03 846 24.98 19.6 67.3 22 -2.8 27
15:40 1017 30.03 846 24.98 19.7 67.5 20 -4 24.9
15:45 1017 30.03 846 24.98 20 67.9 18 -4.6 23.7
15:50 1017 30.03 846 24.98 20 67.9 20 -3.7 25.3
15:55 1017 30.03 846 24.98 19.6 67.4 18 -4.8 23.3
16:00 1017 30.03 846 24.98 19.6 67.3 19 -4.6 23.6
16:05 1017 30.03 846 24.98 19.9 67.9 18 -4.8 23.4
16:10 1017 30.03 846 24.98 19.5 67.1 19 -4.8 23.4
16:15 1017 30.03 846 24.98 19.5 67.1 20 -4.1 24.6
16:20 1016 30 846 24.98 19.4 66.8 21 -3.5 25.7
16:25 1016 30 846 24.98 19 66.1 19 -5.2 22.6
16:30 1016 30 846 24.98 19.6 67.3 20 -4 24.9
16:35 1016 30 846 24.98 19.8 67.6 19 -4.3 24.2
16:40 1016 30 846 24.98 19.5 67.2 21 -3.5 25.7
16:45 1016 30 846 24.98 19.5 67 19 -4.8 23.4
16:50 1016 30 846 24.98 19.8 67.6 19 -4.2 24.4
16:55 1016 30 846 24.98 19.5 67.1 19 -4.7 23.5
17:00 1016 30 846 24.98 19.3 66.7 20 -4.2 24.4
17:05 1016 30 846 24.98 18.9 65.9 20 -4.2 24.5
17:10 1016 30 846 24.98 19.2 66.5 20 -4.1 24.6
17:15 1016 30 846 24.98 19.2 66.6 21 -3.2 26.2
17:20 1016 30 846 24.98 19.4 66.9 21 -3.4 25.8
17:25 1016 30 846 24.98 19.3 66.7 21 -3.1 26.4
17:30 1016 30 846 24.98 19.1 66.3 21 -3.3 26
17:35 1016 30 846 24.98 18.4 65.2 22 -3.4 25.8
17:40 1017 30.03 846 24.98 18.1 64.6 23 -3 26.5
17:45 1016 30 846 24.98 18.8 65.8 22 -3 26.6
17:50 1016 30 846 24.98 19 66.3 22 -2.9 26.7
17:55 1016 30 846 24.98 19.1 66.3 22 -3.3 26
18:00 1016 30 846 24.98 19 66.3 22 -3.2 26.3
18:05 1016 30 846 24.98 19 66.2 24 -2.2 28.1
18:10 1016 30 846 24.98 18.8 65.8 23 -2.6 27.3
18:15 1016 30 845 24.95 19 66.1 23 -2.4 27.7
18:20 1016 30 845 24.95 19.2 66.5 22 -2.8 26.9
18:25 1016 30 845 24.95 18.8 65.9 23 -2.4 27.6
18:30 1016 30 845 24.95 18.8 65.8 23 -2.4 27.7
18:35 1016 30 845 24.95 18.9 66.1 23 -2.5 27.5
18:40 1016 30 845 24.95 18.8 65.8 22 -3 26.7
18:45 1016 30 845 24.95 18.1 64.6 24 -2.9 26.7
18:50 1016 30 845 24.95 18.3 64.9 24 -2.7 27.2
18:55 1016 30 845 24.95 18.6 65.4 24 -2.5 27.5
19:00 1016 30 845 24.95 18.3 65 24 -2.4 27.6
19:05 1016 30 845 24.95 17.8 64 25 -2.6 27.4
19:10 1016 30 845 24.95 17.5 63.5 26 -2.3 27.9
19:15 1016 30 845 24.95 17.4 63.4 25 -2.9 26.9
19:20 1016 30 845 24.95 17.4 63.3 25 -2.6 27.3
19:25 1016 30 845 24.95 17.5 63.6 25 -2.9 26.9
19:30 1016 30 846 24.98 17.5 63.5 24 -3.3 26.1
19:35 1016 30 846 24.98 17.4 63.3 23 -3.6 25.5
19:40 1016 30 846 24.98 17 62.6 25 -3.1 26.3
19:45 1016 30 846 24.98 17.1 62.7 24 -3.6 25.5
19:50 1016 30 846 24.98 17.1 62.9 23 -3.9 25
19:55 1016 30 846 24.98 17.1 62.7 24 -3.8 25.1
20:00 1016 30 846 24.98 17 62.7 24 -3.7 25.3
20:05 1016 30 846 24.98 17 62.6 24 -3.6 25.6
20:10 1016 30 846 24.98 17 62.5 23 -4.1 24.7
20:15 1016 30 846 24.98 16.9 62.3 22 -4.6 23.7
20:20 1016 30 846 24.98 16.7 62.1 23 -4.4 24
20:25 1017 30.03 846 24.98 16.5 61.8 23 -4.7 23.5
20:30 1017 30.03 846 24.98 16.5 61.7 23 -4.6 23.7
20:35 1017 30.03 846 24.98 16.4 61.4 23 -4.5 24
20:40 1017 30.03 846 24.98 16.2 61.2 24 -4.5 23.9
20:45 1017 30.03 846 24.98 16 60.8 24 -4.6 23.7
20:50 1017 30.03 846 24.98 15.8 60.5 24 -4.5 24
20:55 1017 30.03 846 24.98 15.6 60.1 25 -4.5 23.9
21:00 1017 30.03 846 24.98 15.1 59.2 30 -2.1 28.2
21:05 1017 30.03 846 24.98 14 57.2 39 0.5 32.8
21:10 1017 30.03 846 24.98 13.2 55.8 43 1.1 34.1
21:15 1017 30.03 846 24.98 13 55.3 46 1.5 34.8
21:20 1017 30.03 846 24.98 12.7 54.8 47 1.8 35.2
21:25 1017 30.03 846 24.98 12.5 54.5 48 1.8 35.3
21:30 1017 30.03 846 24.98 12.4 54.3 48 1.7 35.1
21:35 1017 30.03 846 24.98 12.4 54.4 48 1.7 35.1
21:40 1017 30.03 846 24.98 12.4 54.2 48 1.8 35.3
21:45 1017 30.03 846 24.98 12.3 54.1 49 1.9 35.4
21:50 1017 30.03 846 24.98 12.1 53.9 49 1.9 35.4
21:55 1017 30.03 847 25.01 12.1 53.7 50 1.9 35.4
22:00 1017 30.03 847 25.01 12 53.5 50 2 35.6
22:05 1017 30.03 847 25.01 11.9 53.5 50 1.8 35.3
22:10 1017 30.03 847 25.01 11.9 53.5 49 1.7 35.1
22:15 1017 30.03 847 25.01 11.9 53.4 50 1.8 35.2
22:20 1017 30.03 847 25.01 11.8 53.2 50 1.7 35.1
22:25 1018 30.06 847 25.01 11.8 53.3 49 1.6 34.9
22:30 1018 30.06 847 25.01 11.8 53.3 49 1.5 34.8
22:35 1017 30.03 847 25.01 11.8 53.2 49 1.6 34.8
22:40 1017 30.03 847 25.01 11.6 52.9 49 1.4 34.5
22:45 1017 30.03 847 25.01 11.6 52.9 50 1.5 34.6
22:50 1017 30.03 847 25.01 11.5 52.6 50 1.4 34.6
22:55 1017 30.03 847 25.01 11.4 52.5 50 1.4 34.5
23:00 1017 30.03 847 25.01 11.3 52.4 50 1.2 34.2
23:05 1017 30.03 847 25.01 11.4 52.5 49 1.2 34.1
23:10 1017 30.03 847 25.01 11.4 52.5 50 1.4 34.5
23:15 1017 30.03 847 25.01 11.3 52.3 50 1.3 34.4
23:20 1018 30.06 847 25.01 11.2 52.2 50 1.3 34.3
23:25 1018 30.06 847 25.01 11.2 52.2 51 1.4 34.5
23:30 1018 30.06 847 25.01 11.1 52 50 1.3 34.3
23:35 1017 30.03 847 25.01 11 51.8 51 1.4 34.5
23:40 1017 30.03 847 25.01 10.9 51.6 51 1.2 34.1
23:45 1017 30.03 847 25.01 10.9 51.6 51 1.2 34.2
23:50 1018 30.06 847 25.01 10.9 51.5 51 1.1 34
23:55 1018 30.06 847 25.01 10.9 51.7 51 1.1 34
24:00 1018 30.06 847 25.01 11 51.7 50 1.1 33.9